createdAt,value
2018-04-28T00:00:47.551Z,1014.05
2018-04-28T00:01:47.704Z,1014.05
2018-04-28T00:02:47.705Z,1014.06
2018-04-28T00:03:47.632Z,1014.03
2018-04-28T00:04:47.561Z,1014
2018-04-28T00:05:47.654Z,1014
2018-04-28T00:06:47.653Z,1014.05
2018-04-28T00:07:47.466Z,1014.04
2018-04-28T00:08:47.667Z,1014.04
2018-04-28T00:09:47.737Z,1014.07
2018-04-28T00:10:47.576Z,1014.05
2018-04-28T00:11:47.462Z,1014.09
2018-04-28T00:12:47.539Z,1014.08
2018-04-28T00:13:47.652Z,1014.08
2018-04-28T00:14:47.647Z,1014.1
2018-04-28T00:15:47.702Z,1014.1
2018-04-28T00:16:47.464Z,1014.05
2018-04-28T00:17:47.625Z,1014.08
2018-04-28T00:18:47.584Z,1014.06
2018-04-28T00:19:47.611Z,1014.07
2018-04-28T00:20:47.522Z,1014.05
2018-04-28T00:21:47.537Z,1014.07
2018-04-28T00:22:47.558Z,1014.08
2018-04-28T00:23:47.621Z,1014.1
2018-04-28T00:24:47.734Z,1014.08
2018-04-28T00:25:47.617Z,1014.07
2018-04-28T00:26:47.466Z,1014.02
2018-04-28T00:27:47.512Z,1014.01
2018-04-28T00:28:47.506Z,1014.01
2018-04-28T00:29:47.574Z,1014.02
2018-04-28T00:30:47.659Z,1014.04
2018-04-28T00:31:47.579Z,1014.05
2018-04-28T00:32:47.693Z,1014.02
2018-04-28T00:33:47.679Z,1014
2018-04-28T00:34:50.626Z,1014.03
2018-04-28T00:35:47.472Z,1014.02
2018-04-28T00:36:47.522Z,1014.01
2018-04-28T00:37:47.570Z,1014.03
2018-04-28T00:38:47.634Z,1014.04
2018-04-28T00:39:47.431Z,1014.06
2018-04-28T00:40:47.782Z,1014.04
2018-04-28T00:41:47.642Z,1014.04
2018-04-28T00:42:47.526Z,1014.05
2018-04-28T00:43:47.646Z,1014.08
2018-04-28T00:44:47.518Z,1014.08
2018-04-28T00:45:47.347Z,1014.08
2018-04-28T00:46:47.580Z,1014.08
2018-04-28T00:47:47.588Z,1014.09
2018-04-28T00:48:47.486Z,1014.14
2018-04-28T00:49:47.475Z,1014.15
2018-04-28T00:50:47.451Z,1014.11
2018-04-28T00:51:47.540Z,1014.13
2018-04-28T00:52:47.689Z,1014.15
2018-04-28T00:53:47.655Z,1014.18
2018-04-28T00:54:47.580Z,1014.16
2018-04-28T00:55:47.696Z,1014.14
2018-04-28T00:56:47.649Z,1014.16
2018-04-28T00:57:47.554Z,1014.14
2018-04-28T00:58:47.652Z,1014.17
2018-04-28T00:59:47.508Z,1014.16
2018-04-28T01:00:47.567Z,1014.14
2018-04-28T01:01:47.657Z,1014.15
2018-04-28T01:02:47.619Z,1014.18
2018-04-28T01:03:47.700Z,1014.13
2018-04-28T01:04:47.818Z,1014.16
2018-04-28T01:05:47.743Z,1014.16
2018-04-28T01:06:47.524Z,1014.17
2018-04-28T01:07:47.501Z,1014.17
2018-04-28T01:08:47.904Z,1014.22
2018-04-28T01:09:47.338Z,1014.19
2018-04-28T01:10:47.859Z,1014.18
2018-04-28T01:11:47.790Z,1014.24
2018-04-28T01:12:47.626Z,1014.17
2018-04-28T01:13:47.879Z,1014.2
2018-04-28T01:14:47.547Z,1014.17
2018-04-28T01:15:47.557Z,1014.17
2018-04-28T01:16:47.824Z,1014.15
2018-04-28T01:17:47.888Z,1014.16
2018-04-28T01:18:47.617Z,1014.19
2018-04-28T01:19:47.640Z,1014.18
2018-04-28T01:20:47.919Z,1014.2
2018-04-28T01:21:47.763Z,1014.16
2018-04-28T01:22:47.694Z,1014.21
2018-04-28T01:23:47.412Z,1014.2
2018-04-28T01:24:47.534Z,1014.24
2018-04-28T01:25:47.540Z,1014.25
2018-04-28T01:26:47.623Z,1014.24
2018-04-28T01:27:47.497Z,1014.23
2018-04-28T01:28:47.581Z,1014.24
2018-04-28T01:29:47.686Z,1014.2
2018-04-28T01:30:47.878Z,1014.27
2018-04-28T01:31:47.501Z,1014.26
2018-04-28T01:32:47.644Z,1014.25
2018-04-28T01:33:47.671Z,1014.25
2018-04-28T01:34:47.573Z,1014.23
2018-04-28T01:35:47.677Z,1014.24
2018-04-28T01:36:47.466Z,1014.27
2018-04-28T01:37:47.576Z,1014.29
2018-04-28T01:38:47.479Z,1014.28
2018-04-28T01:39:47.529Z,1014.24
2018-04-28T01:40:47.506Z,1014.29
2018-04-28T01:41:47.473Z,1014.27
2018-04-28T01:42:47.735Z,1014.31
2018-04-28T01:43:47.709Z,1014.32
2018-04-28T01:44:47.542Z,1014.33
2018-04-28T01:45:47.708Z,1014.33
2018-04-28T01:46:47.742Z,1014.35
2018-04-28T01:47:47.629Z,1014.36
2018-04-28T01:48:47.806Z,1014.34
2018-04-28T01:49:47.772Z,1014.35
2018-04-28T01:50:47.863Z,1014.32
2018-04-28T01:51:47.801Z,1014.31
2018-04-28T01:52:47.697Z,1014.33
2018-04-28T01:53:47.683Z,1014.33
2018-04-28T01:54:47.698Z,1014.35
2018-04-28T01:55:47.838Z,1014.34
2018-04-28T01:56:47.854Z,1014.36
2018-04-28T01:57:47.801Z,1014.35
2018-04-28T01:58:47.756Z,1014.37
2018-04-28T01:59:47.840Z,1014.42
2018-04-28T02:00:47.886Z,1014.44
2018-04-28T02:01:47.527Z,1014.45
2018-04-28T02:02:47.679Z,1014.47
2018-04-28T02:03:47.740Z,1014.51
2018-04-28T02:04:47.639Z,1014.5
2018-04-28T02:05:47.842Z,1014.5
2018-04-28T02:06:47.552Z,1014.52
2018-04-28T02:07:47.771Z,1014.57
2018-04-28T02:08:47.686Z,1014.58
2018-04-28T02:09:47.910Z,1014.61
2018-04-28T02:10:48.715Z,1014.58
2018-04-28T02:11:47.932Z,1014.61
2018-04-28T02:12:47.726Z,1014.63
2018-04-28T02:13:47.755Z,1014.64
2018-04-28T02:14:48.408Z,1014.63
2018-04-28T02:15:47.519Z,1014.62
2018-04-28T02:16:47.744Z,1014.62
2018-04-28T02:17:47.759Z,1014.64
2018-04-28T02:18:47.802Z,1014.62
2018-04-28T02:19:48.010Z,1014.68
2018-04-28T02:20:47.875Z,1014.65
2018-04-28T02:21:47.901Z,1014.67
2018-04-28T02:22:47.896Z,1014.72
2018-04-28T02:23:47.602Z,1014.74
2018-04-28T02:24:47.599Z,1014.74
2018-04-28T02:25:47.663Z,1014.81
2018-04-28T02:26:47.656Z,1014.78
2018-04-28T02:27:47.839Z,1014.81
2018-04-28T02:28:48.190Z,1014.83
2018-04-28T02:29:47.917Z,1014.8
2018-04-28T02:30:47.520Z,1014.81
2018-04-28T02:31:47.887Z,1014.83
2018-04-28T02:32:47.506Z,1014.84
2018-04-28T02:33:48.185Z,1014.88
2018-04-28T02:34:47.745Z,1014.9
2018-04-28T02:35:47.777Z,1014.95
2018-04-28T02:36:47.636Z,1014.95
2018-04-28T02:37:47.874Z,1014.96
2018-04-28T02:38:48.082Z,1014.95
2018-04-28T02:39:47.722Z,1014.96
2018-04-28T02:40:47.427Z,1014.97
2018-04-28T02:41:47.680Z,1014.99
2018-04-28T02:42:47.489Z,1015.03
2018-04-28T02:43:48.251Z,1015.03
2018-04-28T02:44:47.876Z,1015.01
2018-04-28T02:45:47.837Z,1015
2018-04-28T02:46:47.585Z,1015.01
2018-04-28T02:47:47.857Z,1015
2018-04-28T02:48:47.851Z,1014.97
2018-04-28T02:49:47.581Z,1014.99
2018-04-28T02:50:47.498Z,1015
2018-04-28T02:51:47.902Z,1014.96
2018-04-28T02:52:47.851Z,1014.94
2018-04-28T02:53:47.769Z,1014.93
2018-04-28T02:54:47.814Z,1014.94
2018-04-28T02:55:47.804Z,1014.95
2018-04-28T02:56:47.491Z,1014.97
2018-04-28T02:57:47.936Z,1015
2018-04-28T02:58:47.416Z,1015.03
2018-04-28T02:59:47.713Z,1015.02
2018-04-28T03:00:48.060Z,1015.06
2018-04-28T03:01:47.452Z,1015.03
2018-04-28T03:02:47.673Z,1014.98
2018-04-28T03:03:47.465Z,1015.02
2018-04-28T03:04:47.624Z,1014.98
2018-04-28T03:05:47.614Z,1014.95
2018-04-28T03:06:47.602Z,1014.95
2018-04-28T03:07:47.596Z,1014.95
2018-04-28T03:08:47.683Z,1014.95
2018-04-28T03:09:47.397Z,1014.99
2018-04-28T03:10:47.768Z,1015.01
2018-04-28T03:11:47.419Z,1014.97
2018-04-28T03:12:47.697Z,1015.07
2018-04-28T03:13:47.467Z,1015.1
2018-04-28T03:14:47.613Z,1015.08
2018-04-28T03:15:47.390Z,1015.11
2018-04-28T03:16:47.501Z,1015.1
2018-04-28T03:17:47.369Z,1015.1
2018-04-28T03:18:47.496Z,1015.12
2018-04-28T03:19:47.679Z,1015.16
2018-04-28T03:20:47.585Z,1015.21
2018-04-28T03:21:47.554Z,1015.23
2018-04-28T03:22:47.469Z,1015.27
2018-04-28T03:23:47.620Z,1015.27
2018-04-28T03:24:47.518Z,1015.32
2018-04-28T03:25:47.653Z,1015.32
2018-04-28T03:26:47.719Z,1015.33
2018-04-28T03:27:47.489Z,1015.33
2018-04-28T03:28:47.475Z,1015.32
2018-04-28T03:29:47.457Z,1015.33
2018-04-28T03:30:47.395Z,1015.33
2018-04-28T03:31:47.600Z,1015.32
2018-04-28T03:32:47.458Z,1015.35
2018-04-28T03:33:47.545Z,1015.35
2018-04-28T03:34:47.472Z,1015.35
2018-04-28T03:35:47.645Z,1015.39
2018-04-28T03:36:47.377Z,1015.37
2018-04-28T03:37:47.647Z,1015.43
2018-04-28T03:38:47.567Z,1015.4
2018-04-28T03:39:47.463Z,1015.4
2018-04-28T03:40:47.597Z,1015.41
2018-04-28T03:41:47.419Z,1015.39
2018-04-28T03:42:47.432Z,1015.4
2018-04-28T03:43:47.635Z,1015.46
2018-04-28T03:44:47.471Z,1015.49
2018-04-28T03:45:47.470Z,1015.52
2018-04-28T03:46:47.637Z,1015.52
2018-04-28T03:47:47.494Z,1015.5
2018-04-28T03:48:47.760Z,1015.51
2018-04-28T03:49:47.778Z,1015.49
2018-04-28T03:50:47.439Z,1015.47
2018-04-28T03:51:47.637Z,1015.51
2018-04-28T03:52:47.485Z,1015.5
2018-04-28T03:53:47.588Z,1015.5
2018-04-28T03:54:47.711Z,1015.52
2018-04-28T03:55:47.417Z,1015.52
2018-04-28T03:56:47.556Z,1015.51
2018-04-28T03:57:47.573Z,1015.53
2018-04-28T03:58:47.424Z,1015.5
2018-04-28T03:59:47.468Z,1015.57
2018-04-28T04:00:47.463Z,1015.61
2018-04-28T04:01:47.425Z,1015.61
2018-04-28T04:02:47.492Z,1015.61
2018-04-28T04:03:47.473Z,1015.59
2018-04-28T04:04:47.416Z,1015.69
2018-04-28T04:05:47.575Z,1015.69
2018-04-28T04:06:47.629Z,1015.73
2018-04-28T04:07:47.640Z,1015.71
2018-04-28T04:08:47.602Z,1015.7
2018-04-28T04:09:47.543Z,1015.72
2018-04-28T04:10:47.601Z,1015.78
2018-04-28T04:11:47.428Z,1015.79
2018-04-28T04:12:47.405Z,1015.77
2018-04-28T04:13:47.609Z,1015.85
2018-04-28T04:14:47.481Z,1015.87
2018-04-28T04:15:47.899Z,1015.86
2018-04-28T04:16:47.495Z,1015.88
2018-04-28T04:17:47.355Z,1015.84
2018-04-28T04:18:47.635Z,1015.82
2018-04-28T04:19:47.442Z,1015.78
2018-04-28T04:20:47.514Z,1015.83
2018-04-28T04:21:47.665Z,1015.88
2018-04-28T04:22:47.786Z,1015.88
2018-04-28T04:23:47.443Z,1015.9
2018-04-28T04:24:47.512Z,1015.88
2018-04-28T04:25:47.517Z,1015.91
2018-04-28T04:26:47.657Z,1015.92
2018-04-28T04:27:47.396Z,1015.91
2018-04-28T04:28:47.481Z,1015.91
2018-04-28T04:29:47.587Z,1015.94
2018-04-28T04:30:47.377Z,1015.9
2018-04-28T04:31:47.662Z,1015.89
2018-04-28T04:32:47.451Z,1015.87
2018-04-28T04:33:47.380Z,1015.86
2018-04-28T04:34:47.388Z,1015.86
2018-04-28T04:35:47.540Z,1015.88
2018-04-28T04:36:47.478Z,1015.87
2018-04-28T04:37:47.913Z,1015.9
2018-04-28T04:38:47.537Z,1015.86
2018-04-28T04:39:47.380Z,1015.85
2018-04-28T04:40:47.530Z,1015.82
2018-04-28T04:41:47.594Z,1015.83
2018-04-28T04:42:47.519Z,1015.79
2018-04-28T04:43:47.543Z,1015.79
2018-04-28T04:44:47.636Z,1015.77
2018-04-28T04:45:47.581Z,1015.82
2018-04-28T04:46:47.377Z,1015.85
2018-04-28T04:47:47.561Z,1015.8
2018-04-28T04:48:47.392Z,1015.83
2018-04-28T04:49:47.549Z,1015.82
2018-04-28T04:50:47.412Z,1015.83
2018-04-28T04:51:47.451Z,1015.83
2018-04-28T04:52:47.398Z,1015.85
2018-04-28T04:53:47.609Z,1015.89
2018-04-28T04:54:47.628Z,1015.93
2018-04-28T04:55:47.646Z,1015.9
2018-04-28T04:56:47.506Z,1015.95
2018-04-28T04:57:47.359Z,1016
2018-04-28T04:58:47.535Z,1015.98
2018-04-28T04:59:47.635Z,1016
2018-04-28T05:00:47.572Z,1016
2018-04-28T05:01:47.553Z,1016.01
2018-04-28T05:02:47.769Z,1016.02
2018-04-28T05:03:47.574Z,1016.03
2018-04-28T05:04:47.353Z,1016.06
2018-04-28T05:05:47.408Z,1016.03
2018-04-28T05:06:47.488Z,1016.1
2018-04-28T05:07:47.468Z,1016.09
2018-04-28T05:08:47.511Z,1016.14
2018-04-28T05:09:47.478Z,1016.15
2018-04-28T05:10:47.560Z,1016.16
2018-04-28T05:11:47.272Z,1016.15
2018-04-28T05:12:47.450Z,1016.2
2018-04-28T05:13:47.544Z,1016.16
2018-04-28T05:14:47.543Z,1016.18
2018-04-28T05:15:47.530Z,1016.19
2018-04-28T05:16:47.521Z,1016.17
2018-04-28T05:17:47.454Z,1016.2
2018-04-28T05:18:47.556Z,1016.19
2018-04-28T05:19:47.340Z,1016.17
2018-04-28T05:20:47.511Z,1016.19
2018-04-28T05:21:47.333Z,1016.24
2018-04-28T05:22:47.622Z,1016.25
2018-04-28T05:23:47.434Z,1016.27
2018-04-28T05:24:47.694Z,1016.34
2018-04-28T05:25:47.404Z,1016.35
2018-04-28T05:26:47.507Z,1016.35
2018-04-28T05:27:47.472Z,1016.34
2018-04-28T05:28:47.517Z,1016.39
2018-04-28T05:29:47.529Z,1016.35
2018-04-28T05:30:47.304Z,1016.38
2018-04-28T05:31:47.386Z,1016.39
2018-04-28T05:32:47.945Z,1016.41
2018-04-28T05:33:47.467Z,1016.39
2018-04-28T05:34:47.530Z,1016.41
2018-04-28T05:35:47.592Z,1016.4
2018-04-28T05:36:47.577Z,1016.4
2018-04-28T05:37:47.468Z,1016.33
2018-04-28T05:38:47.527Z,1016.36
2018-04-28T05:39:47.340Z,1016.36
2018-04-28T05:40:47.610Z,1016.32
2018-04-28T05:41:47.476Z,1016.35
2018-04-28T05:42:47.585Z,1016.33
2018-04-28T05:43:47.386Z,1016.33
2018-04-28T05:44:47.518Z,1016.39
2018-04-28T05:45:47.384Z,1016.41
2018-04-28T05:46:47.532Z,1016.44
2018-04-28T05:47:47.470Z,1016.41
2018-04-28T05:48:47.337Z,1016.44
2018-04-28T05:49:47.397Z,1016.47
2018-04-28T05:50:47.416Z,1016.52
2018-04-28T05:51:47.621Z,1016.53
2018-04-28T05:52:47.378Z,1016.58
2018-04-28T05:53:47.476Z,1016.6
2018-04-28T05:54:47.431Z,1016.66
2018-04-28T05:55:47.457Z,1016.66
2018-04-28T05:56:47.622Z,1016.69
2018-04-28T05:57:47.923Z,1016.68
2018-04-28T05:58:47.410Z,1016.7
2018-04-28T05:59:47.541Z,1016.7
2018-04-28T06:00:47.424Z,1016.68
2018-04-28T06:01:47.619Z,1016.79
2018-04-28T06:02:47.528Z,1016.82
2018-04-28T06:03:47.401Z,1016.84
2018-04-28T06:04:47.643Z,1016.84
2018-04-28T06:05:47.692Z,1016.88
2018-04-28T06:06:47.416Z,1016.9
2018-04-28T06:07:47.439Z,1016.87
2018-04-28T06:08:47.387Z,1016.86
2018-04-28T06:09:47.353Z,1016.88
2018-04-28T06:10:47.344Z,1016.93
2018-04-28T06:11:47.474Z,1016.96
2018-04-28T06:12:47.396Z,1016.95
2018-04-28T06:13:47.412Z,1017
2018-04-28T06:14:47.517Z,1017.01
2018-04-28T06:15:47.474Z,1017.03
2018-04-28T06:16:47.538Z,1016.98
2018-04-28T06:17:47.396Z,1016.97
2018-04-28T06:18:47.397Z,1016.93
2018-04-28T06:19:47.437Z,1016.96
2018-04-28T06:20:47.389Z,1016.94
2018-04-28T06:21:47.511Z,1016.88
2018-04-28T06:22:47.386Z,1016.93
2018-04-28T06:23:47.527Z,1016.92
2018-04-28T06:24:47.657Z,1016.95
2018-04-28T06:25:47.353Z,1016.92
2018-04-28T06:26:47.409Z,1016.96
2018-04-28T06:27:47.379Z,1016.97
2018-04-28T06:28:47.556Z,1016.94
2018-04-28T06:29:47.539Z,1016.95
2018-04-28T06:30:47.571Z,1016.99
2018-04-28T06:31:47.415Z,1016.98
2018-04-28T06:32:47.542Z,1016.96
2018-04-28T06:33:47.567Z,1016.98
2018-04-28T06:34:47.510Z,1016.99
2018-04-28T06:35:47.819Z,1016.97
2018-04-28T06:36:47.597Z,1017.01
2018-04-28T06:37:47.361Z,1017.02
2018-04-28T06:38:47.421Z,1016.99
2018-04-28T06:39:47.576Z,1016.99
2018-04-28T06:40:47.483Z,1017.04
2018-04-28T06:41:47.457Z,1017.04
2018-04-28T06:42:47.556Z,1017.01
2018-04-28T06:43:47.528Z,1017.06
2018-04-28T06:44:47.624Z,1017.03
2018-04-28T06:45:47.328Z,1017.01
2018-04-28T06:46:47.338Z,1017.03
2018-04-28T06:47:47.359Z,1017.02
2018-04-28T06:48:47.507Z,1017.05
2018-04-28T06:49:47.406Z,1017.04
2018-04-28T06:50:47.528Z,1017.04
2018-04-28T06:51:47.395Z,1017.01
2018-04-28T06:52:47.517Z,1016.99
2018-04-28T06:53:47.301Z,1017.04
2018-04-28T06:54:47.532Z,1017.02
2018-04-28T06:55:47.499Z,1017.01
2018-04-28T06:56:47.631Z,1017.03
2018-04-28T06:57:47.503Z,1017.06
2018-04-28T06:58:47.566Z,1017.09
2018-04-28T06:59:47.448Z,1017.04
2018-04-28T07:00:47.656Z,1017.08
2018-04-28T07:01:47.338Z,1017.07
2018-04-28T07:02:47.395Z,1017.06
2018-04-28T07:03:47.494Z,1017.08
2018-04-28T07:04:47.319Z,1017.1
2018-04-28T07:05:47.347Z,1017.13
2018-04-28T07:06:47.292Z,1017.13
2018-04-28T07:07:47.544Z,1017.11
2018-04-28T07:08:47.448Z,1017.11
2018-04-28T07:09:47.364Z,1017.1
2018-04-28T07:10:47.862Z,1017.11
2018-04-28T07:11:47.344Z,1017.08
2018-04-28T07:12:47.695Z,1017.06
2018-04-28T07:13:47.420Z,1017.07
2018-04-28T07:14:47.634Z,1017.05
2018-04-28T07:15:47.551Z,1017.09
2018-04-28T07:16:47.502Z,1017.04
2018-04-28T07:17:47.335Z,1017.04
2018-04-28T07:18:47.450Z,1017.04
2018-04-28T07:19:47.317Z,1017
2018-04-28T07:20:47.447Z,1017.01
2018-04-28T07:21:47.486Z,1017.03
2018-04-28T07:22:47.476Z,1017
2018-04-28T07:23:47.394Z,1016.98
2018-04-28T07:24:47.310Z,1016.98
2018-04-28T07:25:47.451Z,1016.98
2018-04-28T07:26:47.595Z,1016.98
2018-04-28T07:27:47.412Z,1017
2018-04-28T07:28:47.456Z,1016.92
2018-04-28T07:29:47.487Z,1016.89
2018-04-28T07:30:47.427Z,1016.89
2018-04-28T07:31:47.315Z,1016.88
2018-04-28T07:32:47.516Z,1016.87
2018-04-28T07:33:47.633Z,1016.9
2018-04-28T07:34:47.479Z,1016.92
2018-04-28T07:35:47.381Z,1016.91
2018-04-28T07:36:47.539Z,1016.9
2018-04-28T07:37:47.465Z,1016.89
2018-04-28T07:38:47.503Z,1016.93
2018-04-28T07:39:47.521Z,1016.82
2018-04-28T07:40:47.305Z,1016.86
2018-04-28T07:41:47.454Z,1016.85
2018-04-28T07:42:47.739Z,1016.83
2018-04-28T07:43:47.233Z,1016.78
2018-04-28T07:44:47.743Z,1016.84
2018-04-28T07:45:47.518Z,1016.84
2018-04-28T07:46:47.354Z,1016.85
2018-04-28T07:47:47.370Z,1016.88
2018-04-28T07:48:47.524Z,1016.88
2018-04-28T07:49:47.403Z,1016.9
2018-04-28T07:50:47.375Z,1016.92
2018-04-28T07:51:47.422Z,1016.87
2018-04-28T07:52:47.444Z,1016.91
2018-04-28T07:53:47.499Z,1016.89
2018-04-28T07:54:47.693Z,1016.87
2018-04-28T07:55:47.396Z,1016.84
2018-04-28T07:56:47.538Z,1016.85
2018-04-28T07:57:47.402Z,1016.85
2018-04-28T07:58:47.385Z,1016.83
2018-04-28T07:59:47.461Z,1016.75
2018-04-28T08:00:47.450Z,1016.75
2018-04-28T08:01:47.530Z,1016.74
2018-04-28T08:02:47.354Z,1016.71
2018-04-28T08:03:47.656Z,1016.73
2018-04-28T08:04:47.375Z,1016.73
2018-04-28T08:05:47.541Z,1016.76
2018-04-28T08:06:47.457Z,1016.75
2018-04-28T08:07:47.634Z,1016.76
2018-04-28T08:08:47.396Z,1016.72
2018-04-28T08:09:47.504Z,1016.69
2018-04-28T08:10:47.445Z,1016.68
2018-04-28T08:11:47.390Z,1016.7
2018-04-28T08:12:47.466Z,1016.66
2018-04-28T08:13:47.467Z,1016.72
2018-04-28T08:14:47.467Z,1016.72
2018-04-28T08:15:47.471Z,1016.7
2018-04-28T08:16:47.525Z,1016.74
2018-04-28T08:17:47.380Z,1016.75
2018-04-28T08:18:47.323Z,1016.75
2018-04-28T08:19:47.355Z,1016.71
2018-04-28T08:20:47.621Z,1016.75
2018-04-28T08:21:47.360Z,1016.74
2018-04-28T08:22:47.362Z,1016.76
2018-04-28T08:23:47.471Z,1016.78
2018-04-28T08:24:47.438Z,1016.8
2018-04-28T08:25:47.522Z,1016.77
2018-04-28T08:26:47.360Z,1016.84
2018-04-28T08:27:47.331Z,1016.79
2018-04-28T08:28:47.328Z,1016.78
2018-04-28T08:29:47.452Z,1016.79
2018-04-28T08:30:47.498Z,1016.79
2018-04-28T08:31:47.435Z,1016.83
2018-04-28T08:32:47.528Z,1016.86
2018-04-28T08:33:47.386Z,1016.83
2018-04-28T08:34:47.482Z,1016.85
2018-04-28T08:35:47.352Z,1016.84
2018-04-28T08:36:47.582Z,1016.88
2018-04-28T08:37:48.812Z,1016.9
2018-04-28T08:38:47.395Z,1016.96
2018-04-28T08:39:47.511Z,1016.9
2018-04-28T08:40:47.311Z,1016.92
2018-04-28T08:41:47.336Z,1016.95
2018-04-28T08:42:47.509Z,1016.96
2018-04-28T08:43:47.430Z,1016.97
2018-04-28T08:44:47.374Z,1016.98
2018-04-28T08:45:47.428Z,1016.96
2018-04-28T08:46:47.451Z,1016.96
2018-04-28T08:47:47.568Z,1016.98
2018-04-28T08:48:47.361Z,1016.94
2018-04-28T08:49:47.387Z,1016.95
2018-04-28T08:50:47.258Z,1016.91
2018-04-28T08:51:47.409Z,1016.94
2018-04-28T08:52:47.427Z,1016.95
2018-04-28T08:53:47.478Z,1016.89
2018-04-28T08:54:47.403Z,1016.9
2018-04-28T08:55:47.492Z,1016.95
2018-04-28T08:56:47.410Z,1016.96
2018-04-28T08:57:47.486Z,1016.93
2018-04-28T08:58:47.457Z,1016.95
2018-04-28T08:59:47.320Z,1016.91
2018-04-28T09:00:47.529Z,1016.89
2018-04-28T09:01:47.478Z,1016.87
2018-04-28T09:02:47.343Z,1016.88
2018-04-28T09:03:47.634Z,1016.87
2018-04-28T09:04:47.543Z,1016.89
2018-04-28T09:05:47.493Z,1016.86
2018-04-28T09:06:47.456Z,1016.88
2018-04-28T09:07:47.456Z,1016.87
2018-04-28T09:08:47.305Z,1016.85
2018-04-28T09:09:47.351Z,1016.84
2018-04-28T09:10:47.533Z,1016.85
2018-04-28T09:11:47.515Z,1016.79
2018-04-28T09:12:47.447Z,1016.84
2018-04-28T09:13:47.404Z,1016.85
2018-04-28T09:14:47.361Z,1016.84
2018-04-28T09:15:47.381Z,1016.85
2018-04-28T09:16:47.313Z,1016.86
2018-04-28T09:17:47.459Z,1016.83
2018-04-28T09:18:47.709Z,1016.91
2018-04-28T09:19:47.447Z,1016.85
2018-04-28T09:20:47.486Z,1016.88
2018-04-28T09:21:47.322Z,1016.9
2018-04-28T09:22:47.634Z,1016.88
2018-04-28T09:23:50.053Z,1016.94
2018-04-28T09:24:48.150Z,1016.88
2018-04-28T09:25:47.487Z,1016.89
2018-04-28T09:26:47.708Z,1016.84
2018-04-28T09:27:47.314Z,1016.84
2018-04-28T09:28:47.642Z,1016.86
2018-04-28T09:29:47.278Z,1016.84
2018-04-28T09:30:47.811Z,1016.79
2018-04-28T09:31:47.399Z,1016.77
2018-04-28T09:32:47.537Z,1016.78
2018-04-28T09:33:47.909Z,1016.81
2018-04-28T09:34:47.439Z,1016.78
2018-04-28T09:35:47.453Z,1016.79
2018-04-28T09:36:47.439Z,1016.79
2018-04-28T09:37:47.488Z,1016.77
2018-04-28T09:38:47.487Z,1016.78
2018-04-28T09:39:47.688Z,1016.8
2018-04-28T09:40:47.312Z,1016.82
2018-04-28T09:41:47.153Z,1016.79
2018-04-28T09:42:47.326Z,1016.78
2018-04-28T09:43:47.349Z,1016.74
2018-04-28T09:44:47.484Z,1016.78
2018-04-28T09:45:47.303Z,1016.77
2018-04-28T09:46:47.268Z,1016.86
2018-04-28T09:47:47.674Z,1016.81
2018-04-28T09:48:47.353Z,1016.82
2018-04-28T09:49:47.513Z,1016.79
2018-04-28T09:50:47.396Z,1016.79
2018-04-28T09:51:47.466Z,1016.71
2018-04-28T09:52:47.893Z,1016.73
2018-04-28T09:53:47.425Z,1016.71
2018-04-28T09:54:47.723Z,1016.66
2018-04-28T09:55:47.957Z,1016.67
2018-04-28T09:56:47.639Z,1016.63
2018-04-28T09:57:47.515Z,1016.67
2018-04-28T09:58:47.244Z,1016.67
2018-04-28T09:59:47.263Z,1016.63
2018-04-28T10:00:47.313Z,1016.64
2018-04-28T10:01:47.413Z,1016.62
2018-04-28T10:02:47.423Z,1016.63
2018-04-28T10:03:47.309Z,1016.61
2018-04-28T10:04:47.387Z,1016.52
2018-04-28T10:05:47.450Z,1016.51
2018-04-28T10:06:47.457Z,1016.46
2018-04-28T10:07:47.409Z,1016.5
2018-04-28T10:08:47.407Z,1016.48
2018-04-28T10:09:47.187Z,1016.49
2018-04-28T10:10:47.358Z,1016.46
2018-04-28T10:11:47.274Z,1016.48
2018-04-28T10:12:47.843Z,1016.48
2018-04-28T10:13:47.386Z,1016.45
2018-04-28T10:14:47.229Z,1016.43
2018-04-28T10:15:47.355Z,1016.44
2018-04-28T10:16:47.303Z,1016.42
2018-04-28T10:17:47.335Z,1016.39
2018-04-28T10:18:47.311Z,1016.35
2018-04-28T10:19:47.534Z,1016.34
2018-04-28T10:20:47.366Z,1016.27
2018-04-28T10:21:47.302Z,1016.22
2018-04-28T10:22:47.458Z,1016.25
2018-04-28T10:23:47.337Z,1016.19
2018-04-28T10:24:47.493Z,1016.21
2018-04-28T10:25:47.371Z,1016.2
2018-04-28T10:26:47.372Z,1016.23
2018-04-28T10:27:47.678Z,1016.26
2018-04-28T10:28:47.415Z,1016.26
2018-04-28T10:29:47.233Z,1016.27
2018-04-28T10:30:47.553Z,1016.28
2018-04-28T10:31:47.450Z,1016.27
2018-04-28T10:32:47.427Z,1016.25
2018-04-28T10:33:47.426Z,1016.22
2018-04-28T10:34:47.549Z,1016.21
2018-04-28T10:35:47.333Z,1016.2
2018-04-28T10:36:47.411Z,1016.16
2018-04-28T10:37:47.335Z,1016.14
2018-04-28T10:38:47.593Z,1016.13
2018-04-28T10:39:47.453Z,1016.09
2018-04-28T10:40:47.293Z,1016.11
2018-04-28T10:41:47.565Z,1016.12
2018-04-28T10:42:47.368Z,1016.13
2018-04-28T10:43:47.417Z,1016.11
2018-04-28T10:44:47.447Z,1016.09
2018-04-28T10:45:47.353Z,1016.1
2018-04-28T10:46:47.289Z,1016.1
2018-04-28T10:47:47.376Z,1016.1
2018-04-28T10:48:47.359Z,1016.07
2018-04-28T10:49:47.460Z,1016.06
2018-04-28T10:50:47.515Z,1016.07
2018-04-28T10:51:47.329Z,1016.02
2018-04-28T10:52:47.211Z,1016.05
2018-04-28T10:53:47.478Z,1015.99
2018-04-28T10:54:47.742Z,1016.03
2018-04-28T10:55:47.434Z,1016.05
2018-04-28T10:56:47.364Z,1015.96
2018-04-28T10:57:47.347Z,1015.92
2018-04-28T10:58:47.473Z,1015.95
2018-04-28T10:59:47.428Z,1015.93
2018-04-28T11:00:47.722Z,1015.95
2018-04-28T11:01:47.842Z,1015.9
2018-04-28T11:02:47.367Z,1015.85
2018-04-28T11:03:47.330Z,1015.83
2018-04-28T11:04:47.707Z,1015.8
2018-04-28T11:05:47.223Z,1015.83
2018-04-28T11:06:47.434Z,1015.83
2018-04-28T11:07:47.353Z,1015.85
2018-04-28T11:08:47.323Z,1015.85
2018-04-28T11:09:47.444Z,1015.84
2018-04-28T11:10:47.444Z,1015.86
2018-04-28T11:11:47.235Z,1015.87
2018-04-28T11:12:47.387Z,1015.88
2018-04-28T11:13:47.478Z,1015.86
2018-04-28T11:14:47.418Z,1015.87
2018-04-28T11:15:47.381Z,1015.91
2018-04-28T11:16:47.361Z,1015.88
2018-04-28T11:17:47.298Z,1015.84
2018-04-28T11:18:47.516Z,1015.84
2018-04-28T11:19:47.461Z,1015.84
2018-04-28T11:20:47.469Z,1015.77
2018-04-28T11:21:47.295Z,1015.76
2018-04-28T11:22:47.623Z,1015.77
2018-04-28T11:23:47.394Z,1015.81
2018-04-28T11:24:47.583Z,1015.8
2018-04-28T11:25:47.629Z,1015.83
2018-04-28T11:26:47.274Z,1015.87
2018-04-28T11:27:47.355Z,1015.91
2018-04-28T11:28:47.357Z,1015.87
2018-04-28T11:29:47.569Z,1015.88
2018-04-28T11:30:47.414Z,1015.89
2018-04-28T11:31:47.337Z,1015.86
2018-04-28T11:32:47.509Z,1015.84
2018-04-28T11:33:47.445Z,1015.83
2018-04-28T11:34:47.420Z,1015.83
2018-04-28T11:35:47.345Z,1015.78
2018-04-28T11:36:47.348Z,1015.83
2018-04-28T11:37:47.271Z,1015.79
2018-04-28T11:38:47.324Z,1015.77
2018-04-28T11:39:47.496Z,1015.78
2018-04-28T11:40:47.399Z,1015.71
2018-04-28T11:41:47.305Z,1015.67
2018-04-28T11:42:47.426Z,1015.74
2018-04-28T11:43:47.429Z,1015.74
2018-04-28T11:44:47.357Z,1015.72
2018-04-28T11:45:47.585Z,1015.7
2018-04-28T11:46:47.387Z,1015.74
2018-04-28T11:47:47.682Z,1015.69
2018-04-28T11:48:47.270Z,1015.67
2018-04-28T11:49:47.209Z,1015.68
2018-04-28T11:50:47.402Z,1015.69
2018-04-28T11:51:47.449Z,1015.72
2018-04-28T11:52:47.389Z,1015.72
2018-04-28T11:53:47.419Z,1015.68
2018-04-28T11:54:47.430Z,1015.65
2018-04-28T11:55:47.314Z,1015.66
2018-04-28T11:56:47.461Z,1015.67
2018-04-28T11:57:47.365Z,1015.65
2018-04-28T11:58:47.325Z,1015.65
2018-04-28T11:59:47.333Z,1015.64
2018-04-28T12:00:47.501Z,1015.67
2018-04-28T12:01:47.270Z,1015.69
2018-04-28T12:02:47.404Z,1015.69
2018-04-28T12:03:47.301Z,1015.73
2018-04-28T12:04:47.406Z,1015.73
2018-04-28T12:05:47.607Z,1015.65
2018-04-28T12:06:47.502Z,1015.67
2018-04-28T12:07:47.406Z,1015.63
2018-04-28T12:08:47.201Z,1015.61